Time;durP1;ratioP1;P1;durP2;ratioP2;P2;SDS_P1;SDS_P2;PMS_P1;PMS_P2;Temp;Humidity;BMP_temperature;BMP_pressure;BME280_temperature;BME280_humidity;BME280_pressure;Samples;Min_cycle;Max_cycle;Signal;HPM_P1;HPM_P2
2023/01/27 00:01:50;;;;;;;11.02;4.50;;;;;;;;;;4988939;28;20066;-85
2023/01/27 00:04:16;;;;;;;11.50;4.05;;;;;;;;;;4986932;28;20042;-84
2023/01/27 00:06:42;;;;;;;10.82;3.83;;;;;;;;;;4987639;28;20127;-85
2023/01/27 00:09:08;;;;;;;10.90;3.97;;;;;;;;;;5018385;28;20049;-85
2023/01/27 00:14:19;;;;;;;12.65;5.07;;;;;;;;;;4990364;28;20042;-85
2023/01/27 00:16:45;;;;;;;8.40;4.93;;;;;;;;;;5021947;28;20053;-85
2023/01/27 00:19:11;;;;;;;9.05;6.18;;;;;;;;;;4987835;28;20065;-85
2023/01/27 00:24:37;;;;;;;10.80;5.95;;;;;;;;;;4990245;28;20046;-86
2023/01/27 00:27:07;;;;;;;11.88;6.18;;;;;;;;;;4993148;28;20494;-85
2023/01/27 00:29:34;;;;;;;11.27;7.13;;;;;;;;;;4989755;28;20066;-86
2023/01/27 00:34:47;;;;;;;14.05;8.07;;;;;;;;;;4987625;28;20129;-85
2023/01/27 00:37:14;;;;;;;14.48;8.27;;;;;;;;;;4992164;28;20045;-85
2023/01/27 00:39:40;;;;;;;12.40;7.57;;;;;;;;;;5014874;28;20050;-85
2023/01/27 00:42:06;;;;;;;11.68;7.47;;;;;;;;;;4991438;28;20161;-85
2023/01/27 00:44:32;;;;;;;11.55;7.55;;;;;;;;;;5017641;28;20411;-85
2023/01/27 00:46:58;;;;;;;15.57;7.65;;;;;;;;;;5015600;28;20078;-85
2023/01/27 00:49:24;;;;;;;11.60;6.25;;;;;;;;;;4992739;28;20043;-85
2023/01/27 00:51:50;;;;;;;15.10;7.38;;;;;;;;;;4985356;28;20474;-86
2023/01/27 00:54:17;;;;;;;11.48;7.50;;;;;;;;;;4993618;28;20042;-84
2023/01/27 00:56:43;;;;;;;11.43;4.90;;;;;;;;;;4990503;28;20071;-84
2023/01/27 00:59:09;;;;;;;7.35;5.30;;;;;;;;;;4989066;28;20109;-84
2023/01/27 01:01:36;;;;;;;11.43;5.38;;;;;;;;;;4988727;28;20134;-80
2023/01/27 01:04:02;;;;;;;9.05;5.38;;;;;;;;;;4990490;28;20114;-85
2023/01/27 01:06:28;;;;;;;8.68;4.93;;;;;;;;;;4999587;28;20046;-84
2023/01/27 01:08:58;;;;;;;10.10;5.40;;;;;;;;;;4990462;28;20049;-84
2023/01/27 01:11:24;;;;;;;6.00;4.50;;;;;;;;;;4977588;28;20045;-85
2023/01/27 01:13:50;;;;;;;10.95;4.90;;;;;;;;;;4988916;28;20119;-84
2023/01/27 01:16:18;;;;;;;7.13;3.85;;;;;;;;;;4987499;28;20588;-84
2023/01/27 01:18:44;;;;;;;6.55;3.72;;;;;;;;;;4990744;28;20049;-85
2023/01/27 01:21:10;;;;;;;9.43;4.18;;;;;;;;;;4990822;28;20046;-85
2023/01/27 01:23:43;;;;;;;7.28;4.32;;;;;;;;;;4974301;28;20050;-85
2023/01/27 01:26:10;;;;;;;6.03;4.03;;;;;;;;;;5016373;28;20053;-83
2023/01/27 01:28:36;;;;;;;8.95;4.45;;;;;;;;;;4986211;28;20055;-85
2023/01/27 01:31:10;;;;;;;10.90;3.75;;;;;;;;;;4991637;28;20063;-85
2023/01/27 01:33:36;;;;;;;;;;;;;;;;;;5014143;28;20050;-85
2023/01/27 01:36:09;;;;;;;9.73;4.07;;;;;;;;;;5021506;28;19926;-85
2023/01/27 01:38:35;;;;;;;5.97;3.25;;;;;;;;;;4979776;28;20050;-85
2023/01/27 01:41:02;;;;;;;9.93;3.80;;;;;;;;;;4991754;28;20475;-84
2023/01/27 01:43:28;;;;;;;8.38;4.07;;;;;;;;;;4986491;28;20079;-85
2023/01/27 01:45:57;;;;;;;7.28;3.33;;;;;;;;;;4990895;28;20054;-85
2023/01/27 01:48:38;;;;;;;6.95;3.85;;;;;;;;;;4981649;28;20490;-85
2023/01/27 01:51:08;;;;;;;9.38;3.70;;;;;;;;;;4986924;28;20048;-85
2023/01/27 01:53:47;;;;;;;7.55;3.20;;;;;;;;;;5019040;28;20046;-84
2023/01/27 01:56:16;;;;;;;13.38;3.88;;;;;;;;;;4992255;28;20053;-84
2023/01/27 01:58:43;;;;;;;7.20;3.47;;;;;;;;;;4989897;28;20038;-85
2023/01/27 02:01:09;;;;;;;6.80;3.20;;;;;;;;;;4992500;28;20049;-84
2023/01/27 02:03:37;;;;;;;10.20;3.78;;;;;;;;;;5017096;28;20053;-85
2023/01/27 02:06:04;;;;;;;8.02;3.60;;;;;;;;;;4984256;28;20513;-84
2023/01/27 02:08:41;;;;;;;6.80;3.20;;;;;;;;;;4988653;28;20152;-85
2023/01/27 02:11:08;;;;;;;7.15;3.13;;;;;;;;;;4988122;28;20034;-85
2023/01/27 02:13:34;;;;;;;4.63;2.80;;;;;;;;;;4985583;28;20039;-85
2023/01/27 02:16:01;;;;;;;5.82;2.80;;;;;;;;;;4985085;28;20039;-85
2023/01/27 02:18:27;;;;;;;6.90;3.28;;;;;;;;;;4986760;28;20054;-86
2023/01/27 02:20:54;;;;;;;6.50;3.20;;;;;;;;;;4983102;28;20046;-85
2023/01/27 02:23:20;;;;;;;7.07;2.90;;;;;;;;;;5005835;28;20049;-86
2023/01/27 02:25:52;;;;;;;6.30;3.40;;;;;;;;;;4991249;28;20038;-85
2023/01/27 02:28:18;;;;;;;6.43;2.90;;;;;;;;;;4986132;28;20046;-86
2023/01/27 02:30:44;;;;;;;6.55;3.08;;;;;;;;;;4981122;28;20049;-84
2023/01/27 02:33:14;;;;;;;7.70;3.13;;;;;;;;;;5020445;28;20052;-84
2023/01/27 02:35:48;;;;;;;7.57;3.08;;;;;;;;;;4987742;28;20045;-85
2023/01/27 02:38:16;;;;;;;6.75;3.05;;;;;;;;;;4973084;28;20046;-85
2023/01/27 02:40:43;;;;;;;3.83;2.88;;;;;;;;;;4977444;28;20046;-85
2023/01/27 02:43:09;;;;;;;10.02;2.92;;;;;;;;;;4988057;28;20041;-84
2023/01/27 02:45:35;;;;;;;5.90;2.70;;;;;;;;;;4992126;28;20041;-84
2023/01/27 02:48:01;;;;;;;5.72;3.00;;;;;;;;;;4990732;28;20084;-86
2023/01/27 02:50:27;;;;;;;6.03;3.03;;;;;;;;;;4991647;28;20073;-86
2023/01/27 02:52:53;;;;;;;8.00;2.70;;;;;;;;;;4989945;28;20502;-84
2023/01/27 02:55:19;;;;;;;2.70;2.50;;;;;;;;;;4975362;28;20149;-85
2023/01/27 02:57:45;;;;;;;4.43;2.80;;;;;;;;;;4982823;28;20049;-85
2023/01/27 03:00:14;;;;;;;3.45;2.50;;;;;;;;;;4986760;28;20413;-85
2023/01/27 03:02:40;;;;;;;5.68;2.72;;;;;;;;;;4987200;28;20049;-86
2023/01/27 03:05:07;;;;;;;5.10;2.95;;;;;;;;;;4986266;28;20089;-85
2023/01/27 03:07:35;;;;;;;4.20;2.83;;;;;;;;;;4995989;28;20038;-85
2023/01/27 03:10:01;;;;;;;4.30;2.60;;;;;;;;;;4971490;28;20093;-86
2023/01/27 03:12:27;;;;;;;6.43;3.22;;;;;;;;;;4972029;28;20042;-85
2023/01/27 03:20:23;;;;;;;5.40;2.55;;;;;;;;;;4972017;28;20046;-86
2023/01/27 03:22:49;;;;;;;5.68;2.85;;;;;;;;;;5001844;28;20056;-86
2023/01/27 03:25:16;;;;;;;4.70;2.60;;;;;;;;;;5001404;28;20057;-85
2023/01/27 03:27:42;;;;;;;2.60;2.38;;;;;;;;;;4973319;28;20491;-86
2023/01/27 03:30:08;;;;;;;10.63;2.72;;;;;;;;;;4973373;28;20494;-85
2023/01/27 03:32:35;;;;;;;4.72;2.50;;;;;;;;;;4978563;28;20090;-85
2023/01/27 03:35:02;;;;;;;3.78;2.50;;;;;;;;;;5004510;28;20482;-85
2023/01/27 03:48:35;;;;;;;8.82;2.40;;;;;;;;;;5005346;28;20069;-87
2023/01/27 03:51:02;;;;;;;3.85;2.60;;;;;;;;;;5006806;28;20050;-86
2023/01/27 03:53:28;;;;;;;4.72;2.53;;;;;;;;;;4974332;28;20100;-85
2023/01/27 03:55:57;;;;;;;5.70;2.60;;;;;;;;;;4974264;28;20053;-86
2023/01/27 03:58:27;;;;;;;7.30;3.30;;;;;;;;;;5006323;28;20043;-86
2023/01/27 04:00:54;;;;;;;5.28;2.80;;;;;;;;;;4977341;28;20082;-85
2023/01/27 04:08:53;;;;;;;6.88;2.67;;;;;;;;;;5006098;28;20057;-86
2023/01/27 04:14:04;;;;;;;3.85;2.63;;;;;;;;;;5003853;28;20054;-86
2023/01/27 04:16:31;;;;;;;4.07;2.67;;;;;;;;;;4977880;28;20038;-85
2023/01/27 04:18:58;;;;;;;7.38;2.65;;;;;;;;;;5007339;28;20049;-86
2023/01/27 04:21:24;;;;;;;7.38;3.10;;;;;;;;;;4977920;28;20042;-84
2023/01/27 04:23:51;;;;;;;3.85;2.78;;;;;;;;;;4995190;28;20982;-85
2023/01/27 04:26:17;;;;;;;5.57;2.78;;;;;;;;;;4988863;28;20042;-85
2023/01/27 04:28:43;;;;;;;7.10;3.03;;;;;;;;;;4976584;28;20066;-85
2023/01/27 04:31:09;;;;;;;6.18;3.28;;;;;;;;;;4976253;28;20043;-85
2023/01/27 04:33:35;;;;;;;6.60;3.00;;;;;;;;;;4978667;28;20046;-86
2023/01/27 04:36:01;;;;;;;7.03;3.22;;;;;;;;;;5008212;28;20042;-85
2023/01/27 04:38:27;;;;;;;6.47;3.20;;;;;;;;;;4975609;28;20453;-87
2023/01/27 04:40:53;;;;;;;9.63;3.53;;;;;;;;;;4973488;28;20086;-86
2023/01/27 04:43:19;;;;;;;10.27;3.63;;;;;;;;;;4980953;28;20081;-86
2023/01/27 04:45:45;;;;;;;4.65;3.08;;;;;;;;;;4975522;28;21575;-85
2023/01/27 04:48:11;;;;;;;5.32;3.22;;;;;;;;;;4978305;28;20058;-86
2023/01/27 04:50:37;;;;;;;6.95;3.67;;;;;;;;;;4975539;28;20969;-86
2023/01/27 04:53:03;;;;;;;7.30;3.25;;;;;;;;;;4976835;28;20054;-85
2023/01/27 04:55:29;;;;;;;6.18;3.80;;;;;;;;;;4978516;28;20076;-86
2023/01/27 04:57:55;;;;;;;10.88;3.70;;;;;;;;;;4972143;28;20042;-86
2023/01/27 05:00:21;;;;;;;4.63;3.20;;;;;;;;;;4972296;28;20042;-85
2023/01/27 05:02:47;;;;;;;8.52;4.03;;;;;;;;;;5007459;28;20545;-86
2023/01/27 05:05:13;;;;;;;5.68;3.95;;;;;;;;;;4990345;28;20057;-85
2023/01/27 05:07:39;;;;;;;8.82;3.90;;;;;;;;;;4974368;28;20042;-85
2023/01/27 05:10:06;;;;;;;8.30;4.05;;;;;;;;;;5008772;28;20173;-86
2023/01/27 05:12:32;;;;;;;6.80;3.75;;;;;;;;;;4971424;28;20096;-86
2023/01/27 05:14:58;;;;;;;7.25;4.07;;;;;;;;;;4973017;28;20174;-86
2023/01/27 05:17:26;;;;;;;7.47;4.00;;;;;;;;;;5014445;28;20133;-85
2023/01/27 05:19:52;;;;;;;4.78;3.70;;;;;;;;;;4995369;28;20475;-85
2023/01/27 05:22:18;;;;;;;6.85;4.10;;;;;;;;;;4988871;28;20042;-86
2023/01/27 05:24:44;;;;;;;10.77;3.85;;;;;;;;;;5021192;28;20046;-85
2023/01/27 05:27:10;;;;;;;4.65;4.03;;;;;;;;;;5021078;28;20438;-85
2023/01/27 05:29:36;;;;;;;10.00;4.47;;;;;;;;;;4983494;28;20097;-86
2023/01/27 05:32:02;;;;;;;8.80;4.25;;;;;;;;;;5016643;28;20046;-86
2023/01/27 05:34:28;;;;;;;5.43;3.70;;;;;;;;;;5020121;28;20105;-86
2023/01/27 05:36:54;;;;;;;8.80;4.07;;;;;;;;;;4989200;28;20046;-85
2023/01/27 05:39:20;;;;;;;8.13;4.22;;;;;;;;;;4988436;28;20569;-86
2023/01/27 05:41:46;;;;;;;8.93;3.88;;;;;;;;;;4986223;28;20046;-86
2023/01/27 05:44:12;;;;;;;7.20;3.70;;;;;;;;;;4989372;28;20062;-86
2023/01/27 05:46:41;;;;;;;6.68;3.83;;;;;;;;;;4985640;28;20122;-87
2023/01/27 05:49:08;;;;;;;5.60;4.10;;;;;;;;;;4990402;28;20050;-87
2023/01/27 05:51:41;;;;;;;9.23;4.05;;;;;;;;;;4994936;28;20074;-87
2023/01/27 05:54:07;;;;;;;8.35;4.05;;;;;;;;;;4989012;28;20038;-86
2023/01/27 05:56:33;;;;;;;5.40;4.10;;;;;;;;;;4993366;28;20046;-87
2023/01/27 05:58:59;;;;;;;13.68;5.05;;;;;;;;;;4992757;28;20500;-88
2023/01/27 06:01:26;;;;;;;9.60;3.97;;;;;;;;;;4985884;28;20043;-86
2023/01/27 06:03:52;;;;;;;9.82;4.07;;;;;;;;;;4990531;28;20048;-88
2023/01/27 06:06:19;;;;;;;8.70;4.75;;;;;;;;;;4989904;28;20039;-86
2023/01/27 06:08:46;;;;;;;5.10;4.10;;;;;;;;;;4989545;28;20509;-85
2023/01/27 06:11:12;;;;;;;8.80;4.57;;;;;;;;;;5005590;28;20073;-87
2023/01/27 06:13:38;;;;;;;8.32;4.53;;;;;;;;;;4992494;28;20042;-87
2023/01/27 06:16:05;;;;;;;7.60;4.82;;;;;;;;;;5016394;28;20399;-86
2023/01/27 06:18:32;;;;;;;8.07;4.25;;;;;;;;;;4983873;28;20046;-87
2023/01/27 06:20:58;;;;;;;8.05;4.35;;;;;;;;;;4990775;28;20083;-87
2023/01/27 06:23:26;;;;;;;6.82;4.55;;;;;;;;;;4989402;28;20046;-85
2023/01/27 06:25:52;;;;;;;8.27;4.00;;;;;;;;;;4994281;28;20046;-87
2023/01/27 06:28:21;;;;;;;8.20;4.55;;;;;;;;;;4989609;28;20050;-88
2023/01/27 06:30:47;;;;;;;6.65;4.45;;;;;;;;;;5019757;28;20046;-87
2023/01/27 06:33:13;;;;;;;7.35;4.65;;;;;;;;;;4989794;28;20169;-84
2023/01/27 06:35:41;;;;;;;10.38;5.63;;;;;;;;;;4987169;28;20061;-86
2023/01/27 06:38:08;;;;;;;9.00;5.40;;;;;;;;;;4988999;28;20046;-86
2023/01/27 06:40:35;;;;;;;9.00;4.68;;;;;;;;;;4980124;28;20047;-85
2023/01/27 06:43:01;;;;;;;8.18;4.78;;;;;;;;;;4998992;28;20043;-87
2023/01/27 06:45:27;;;;;;;11.02;5.40;;;;;;;;;;5007998;28;20367;-86
2023/01/27 06:47:55;;;;;;;8.43;4.60;;;;;;;;;;4998013;28;20060;-81
2023/01/27 06:50:21;;;;;;;7.63;5.25;;;;;;;;;;4987334;28;20495;-82
2023/01/27 06:52:47;;;;;;;7.28;4.78;;;;;;;;;;4975033;28;20043;-83
2023/01/27 06:55:16;;;;;;;9.60;5.10;;;;;;;;;;4990659;28;20050;-81
2023/01/27 06:57:43;;;;;;;11.52;4.05;;;;;;;;;;4984217;28;20043;-82
2023/01/27 07:00:09;;;;;;;7.07;4.43;;;;;;;;;;4977654;28;20058;-82
2023/01/27 07:02:35;;;;;;;6.45;4.60;;;;;;;;;;5012668;28;20063;-83
2023/01/27 07:05:01;;;;;;;6.75;4.60;;;;;;;;;;4984235;28;20534;-83
2023/01/27 07:07:27;;;;;;;5.55;4.10;;;;;;;;;;5011065;28;20462;-83
2023/01/27 07:09:53;;;;;;;9.75;4.50;;;;;;;;;;4983519;28;20050;-83
2023/01/27 07:12:19;;;;;;;6.68;4.30;;;;;;;;;;5007413;28;20146;-83
2023/01/27 07:14:45;;;;;;;6.57;4.25;;;;;;;;;;4976379;28;20527;-82
2023/01/27 07:17:14;;;;;;;5.38;3.92;;;;;;;;;;4980346;28;20122;-84
2023/01/27 07:19:40;;;;;;;5.53;4.13;;;;;;;;;;5009541;28;20057;-83
2023/01/27 07:22:06;;;;;;;7.82;4.00;;;;;;;;;;5003999;28;20047;-83
2023/01/27 07:24:32;;;;;;;6.22;4.20;;;;;;;;;;4984683;28;20049;-83
2023/01/27 07:26:58;;;;;;;7.30;4.40;;;;;;;;;;5015078;28;20034;-83
2023/01/27 07:29:24;;;;;;;9.23;4.07;;;;;;;;;;4984798;28;20097;-83
2023/01/27 07:31:50;;;;;;;7.18;4.30;;;;;;;;;;4980326;28;20084;-83
2023/01/27 07:34:19;;;;;;;7.82;4.43;;;;;;;;;;4983987;28;20037;-83
2023/01/27 07:36:45;;;;;;;8.90;4.10;;;;;;;;;;4986216;28;20125;-82
2023/01/27 07:39:11;;;;;;;9.88;3.70;;;;;;;;;;4997390;28;20153;-80
2023/01/27 07:41:37;;;;;;;6.90;3.67;;;;;;;;;;5002525;28;20136;-84
2023/01/27 07:44:03;;;;;;;5.30;3.50;;;;;;;;;;4977805;28;20101;-83
2023/01/27 07:46:29;;;;;;;8.25;3.70;;;;;;;;;;5025501;28;20137;-83
2023/01/27 07:48:55;;;;;;;4.32;3.00;;;;;;;;;;4989054;28;20046;-82
2023/01/27 07:51:21;;;;;;;8.35;3.78;;;;;;;;;;5018241;28;20038;-83
2023/01/27 07:53:47;;;;;;;7.90;4.18;;;;;;;;;;5016045;28;20131;-83
2023/01/27 07:56:14;;;;;;;7.07;4.30;;;;;;;;;;4987610;28;20121;-83
2023/01/27 07:58:40;;;;;;;8.75;3.33;;;;;;;;;;5010137;28;20050;-84
2023/01/27 08:01:07;;;;;;;6.15;3.10;;;;;;;;;;4970790;28;20105;-81
2023/01/27 08:03:34;;;;;;;4.32;3.13;;;;;;;;;;4983759;28;20459;-83
2023/01/27 08:06:03;;;;;;;5.75;2.92;;;;;;;;;;4978240;28;20035;-83
2023/01/27 08:08:29;;;;;;;3.30;3.00;;;;;;;;;;5006929;28;20096;-83
2023/01/27 08:10:58;;;;;;;4.57;3.00;;;;;;;;;;4976405;28;20125;-83
2023/01/27 08:13:28;;;;;;;4.20;2.80;;;;;;;;;;4975382;28;20053;-84
2023/01/27 08:15:58;;;;;;;5.80;3.22;;;;;;;;;;4982534;28;20236;-83
2023/01/27 08:18:24;;;;;;;4.30;3.10;;;;;;;;;;4983120;28;20363;-83
2023/01/27 08:20:51;;;;;;;5.65;2.83;;;;;;;;;;5017361;28;20046;-83
2023/01/27 08:23:18;;;;;;;5.10;4.25;;;;;;;;;;4982321;28;20093;-83
2023/01/27 08:25:54;;;;;;;4.38;2.85;;;;;;;;;;4980047;28;20516;-82
2023/01/27 08:28:20;;;;;;;7.97;3.33;;;;;;;;;;4975266;28;20031;-83
2023/01/27 08:30:47;;;;;;;4.68;3.03;;;;;;;;;;4984297;28;20058;-83
2023/01/27 08:33:13;;;;;;;3.92;3.50;;;;;;;;;;4985667;28;20084;-83
2023/01/27 08:35:43;;;;;;;4.75;3.28;;;;;;;;;;4980883;28;20045;-82
2023/01/27 08:38:09;;;;;;;5.70;3.22;;;;;;;;;;4994636;28;20038;-83
2023/01/27 08:40:38;;;;;;;4.20;3.40;;;;;;;;;;5030221;28;20077;-83
2023/01/27 08:43:04;;;;;;;5.65;3.05;;;;;;;;;;4980864;28;20490;-83
2023/01/27 08:45:30;;;;;;;3.28;2.97;;;;;;;;;;4981070;28;20077;-84
2023/01/27 08:47:56;;;;;;;3.45;2.63;;;;;;;;;;5011450;28;20430;-84
2023/01/27 08:50:22;;;;;;;4.65;3.05;;;;;;;;;;4984529;28;20050;-84
2023/01/27 08:52:48;;;;;;;3.80;2.67;;;;;;;;;;4982368;28;20042;-83
2023/01/27 08:55:15;;;;;;;4.07;2.88;;;;;;;;;;5008510;28;20043;-82
2023/01/27 08:57:41;;;;;;;4.97;3.00;;;;;;;;;;4975435;28;20043;-83
2023/01/27 09:00:08;;;;;;;4.10;2.60;;;;;;;;;;5005994;28;20046;-82
2023/01/27 09:02:34;;;;;;;3.78;2.53;;;;;;;;;;4983605;28;20121;-83
2023/01/27 09:05:00;;;;;;;4.15;2.72;;;;;;;;;;4983276;28;20074;-83
2023/01/27 09:07:26;;;;;;;4.57;2.80;;;;;;;;;;4981043;28;20084;-83
2023/01/27 09:09:52;;;;;;;8.43;2.97;;;;;;;;;;4974305;28;20043;-83
2023/01/27 09:12:18;;;;;;;4.95;2.90;;;;;;;;;;5013205;28;20042;-83
2023/01/27 09:14:44;;;;;;;5.38;2.60;;;;;;;;;;4977259;28;20101;-83
2023/01/27 09:17:10;;;;;;;5.63;2.63;;;;;;;;;;4979246;28;20042;-83
2023/01/27 09:19:36;;;;;;;2.33;2.13;;;;;;;;;;4975586;28;20053;-84
2023/01/27 09:22:04;;;;;;;3.67;2.40;;;;;;;;;;4980943;28;20514;-83
2023/01/27 09:24:30;;;;;;;3.28;2.58;;;;;;;;;;4975569;28;20054;-83
2023/01/27 09:26:56;;;;;;;4.55;2.63;;;;;;;;;;5016812;28;20042;-83
2023/01/27 09:29:22;;;;;;;3.45;2.47;;;;;;;;;;4993725;28;20136;-83
2023/01/27 09:31:48;;;;;;;4.90;2.50;;;;;;;;;;5009249;28;20078;-83
2023/01/27 09:34:14;;;;;;;6.80;3.00;;;;;;;;;;4975160;28;20129;-83
2023/01/27 09:36:41;;;;;;;4.80;2.50;;;;;;;;;;4990612;28;20611;-83
2023/01/27 09:39:11;;;;;;;3.22;2.75;;;;;;;;;;4992965;28;20819;-83
2023/01/27 09:41:55;;;;;;;2.80;2.53;;;;;;;;;;4997887;28;20112;-83
2023/01/27 09:44:40;;;;;;;2.70;2.45;;;;;;;;;;4987359;28;20117;-83
2023/01/27 09:47:06;;;;;;;5.78;2.40;;;;;;;;;;4992248;28;20371;-83
2023/01/27 09:49:32;;;;;;;10.90;3.05;;;;;;;;;;4992186;28;20081;-83
2023/01/27 09:52:04;;;;;;;2.75;2.45;;;;;;;;;;4992218;28;20470;-83
2023/01/27 09:54:37;;;;;;;5.13;2.42;;;;;;;;;;5005808;28;20038;-83
2023/01/27 09:57:12;;;;;;;6.13;2.42;;;;;;;;;;4991770;28;20425;-83
2023/01/27 09:59:53;;;;;;;3.58;2.03;;;;;;;;;;4992630;28;20038;-83
2023/01/27 10:02:39;;;;;;;3.35;2.20;;;;;;;;;;4989820;28;20089;-82
2023/01/27 10:05:26;;;;;;;3.33;2.20;;;;;;;;;;4991114;28;20054;-83
2023/01/27 10:08:00;;;;;;;5.00;2.30;;;;;;;;;;5018108;28;20054;-83
2023/01/27 10:10:32;;;;;;;4.63;2.58;;;;;;;;;;4984126;28;20138;-83
2023/01/27 10:12:58;;;;;;;4.65;1.85;;;;;;;;;;5007372;28;20125;-83
2023/01/27 10:15:43;;;;;;;3.08;1.80;;;;;;;;;;4975442;28;20047;-83
2023/01/27 10:18:28;;;;;;;3.92;2.00;;;;;;;;;;4986590;28;20038;-83
2023/01/27 10:21:00;;;;;;;2.55;2.03;;;;;;;;;;5008184;28;20090;-83
2023/01/27 10:23:29;;;;;;;4.22;1.80;;;;;;;;;;4990794;28;20069;-83
2023/01/27 10:26:01;;;;;;;4.22;2.08;;;;;;;;;;4979580;28;20043;-83
2023/01/27 10:28:28;;;;;;;3.42;2.58;;;;;;;;;;5010339;28;20046;-83
2023/01/27 10:31:01;;;;;;;4.68;2.08;;;;;;;;;;4974559;28;20058;-83
2023/01/27 10:33:42;;;;;;;3.33;1.95;;;;;;;;;;5008702;28;20494;-83
2023/01/27 10:36:29;;;;;;;6.85;3.15;;;;;;;;;;4983899;28;20074;-83
2023/01/27 10:39:01;;;;;;;4.03;2.10;;;;;;;;;;4991398;28;20048;-83
2023/01/27 10:41:26;;;;;;;3.13;1.95;;;;;;;;;;4985398;28;20580;-84
2023/01/27 10:44:11;;;;;;;3.85;2.53;;;;;;;;;;4991875;28;20129;-83
2023/01/27 10:46:37;;;;;;;7.07;2.30;;;;;;;;;;4982655;28;20051;-83
2023/01/27 10:49:22;;;;;;;2.70;2.00;;;;;;;;;;4989265;28;20057;-83
2023/01/27 10:52:08;;;;;;;4.05;2.10;;;;;;;;;;4988225;28;20050;-84
2023/01/27 10:54:38;;;;;;;3.22;1.95;;;;;;;;;;4989931;28;20096;-82
2023/01/27 10:57:07;;;;;;;5.25;2.00;;;;;;;;;;4988047;28;20049;-83
2023/01/27 10:59:53;;;;;;;2.78;1.65;;;;;;;;;;4992603;28;20517;-83
2023/01/27 11:02:31;;;;;;;3.17;2.08;;;;;;;;;;4990034;28;20054;-82
2023/01/27 11:05:03;;;;;;;5.20;2.20;;;;;;;;;;4985549;28;20046;-83
2023/01/27 11:07:32;;;;;;;2.33;2.13;;;;;;;;;;4979621;28;20049;-83
2023/01/27 11:10:00;;;;;;;4.03;2.35;;;;;;;;;;4987700;28;20070;-83
2023/01/27 11:12:32;;;;;;;3.08;2.00;;;;;;;;;;5022620;28;20060;-83
2023/01/27 11:14:58;;;;;;;2.80;2.10;;;;;;;;;;4983113;28;20042;-83
2023/01/27 11:17:36;;;;;;;3.50;2.03;;;;;;;;;;4975289;28;20105;-82
2023/01/27 11:20:11;;;;;;;5.05;2.22;;;;;;;;;;4980910;28;20516;-83
2023/01/27 11:22:48;;;;;;;6.30;4.03;;;;;;;;;;4982208;28;20053;-81
2023/01/27 11:25:22;;;;;;;4.85;3.40;;;;;;;;;;5003749;28;20053;-82
2023/01/27 11:28:07;;;;;;;3.80;2.55;;;;;;;;;;4976653;28;20050;-82
2023/01/27 11:30:38;;;;;;;4.43;2.15;;;;;;;;;;4977578;28;20151;-82
2023/01/27 11:33:18;;;;;;;3.58;1.85;;;;;;;;;;5010064;28;20054;-82
2023/01/27 11:35:44;;;;;;;3.95;2.22;;;;;;;;;;5010439;28;20043;-82
2023/01/27 11:38:14;;;;;;;3.25;1.83;;;;;;;;;;5012055;28;20042;-82
2023/01/27 11:40:40;;;;;;;5.65;2.40;;;;;;;;;;4985524;28;20049;-82
2023/01/27 11:43:06;;;;;;;3.70;2.40;;;;;;;;;;4990735;28;20058;-81
2023/01/27 11:45:36;;;;;;;4.63;2.40;;;;;;;;;;5010885;28;20042;-82
2023/01/27 11:48:05;;;;;;;4.03;2.40;;;;;;;;;;5008822;28;20060;-83
2023/01/27 11:50:33;;;;;;;4.47;2.33;;;;;;;;;;4976234;28;20043;-83
2023/01/27 11:53:04;;;;;;;3.85;2.47;;;;;;;;;;5024139;28;20042;-84
2023/01/27 11:55:34;;;;;;;3.78;2.28;;;;;;;;;;4997063;28;20107;-84
2023/01/27 11:58:11;;;;;;;2.83;2.10;;;;;;;;;;4996341;28;20093;-83
2023/01/27 12:00:43;;;;;;;3.22;2.20;;;;;;;;;;4997695;28;20038;-83
2023/01/27 12:03:28;;;;;;;4.20;1.90;;;;;;;;;;4977494;28;20527;-83
2023/01/27 12:05:55;;;;;;;5.97;2.65;;;;;;;;;;5012556;28;20116;-83
2023/01/27 12:08:36;;;;;;;2.05;1.90;;;;;;;;;;4991636;28;20056;-82
2023/01/27 12:11:21;;;;;;;3.17;1.80;;;;;;;;;;4978857;28;20367;-83
2023/01/27 12:14:01;;;;;;;3.00;1.95;;;;;;;;;;5008304;28;20046;-83
2023/01/27 12:16:40;;;;;;;1.83;1.60;;;;;;;;;;4982778;28;20050;-84
2023/01/27 12:19:21;;;;;;;2.83;1.70;;;;;;;;;;4979894;28;20081;-85
2023/01/27 12:21:49;;;;;;;3.88;2.42;;;;;;;;;;5012596;28;20054;-84
2023/01/27 12:24:22;;;;;;;2.35;2.00;;;;;;;;;;4975156;28;20513;-84
2023/01/27 12:26:50;;;;;;;3.70;1.88;;;;;;;;;;4978134;28;20070;-84
2023/01/27 12:29:22;;;;;;;2.38;2.17;;;;;;;;;;4978663;28;20399;-83
2023/01/27 12:31:50;;;;;;;2.08;1.98;;;;;;;;;;5009447;28;20079;-84
2023/01/27 12:34:22;;;;;;;3.45;2.17;;;;;;;;;;4978912;28;20042;-83
2023/01/27 12:36:49;;;;;;;3.65;1.98;;;;;;;;;;5010755;28;20050;-84
2023/01/27 12:39:26;;;;;;;3.22;1.92;;;;;;;;;;4978341;28;20045;-84
2023/01/27 12:41:52;;;;;;;1.90;1.80;;;;;;;;;;4977583;28;20043;-84
2023/01/27 12:44:21;;;;;;;3.38;2.15;;;;;;;;;;5010846;28;20065;-83
2023/01/27 12:47:01;;;;;;;4.90;2.20;;;;;;;;;;4982697;28;20082;-83
2023/01/27 12:49:34;;;;;;;3.28;2.10;;;;;;;;;;5009089;28;20115;-84
2023/01/27 12:52:02;;;;;;;2.72;2.10;;;;;;;;;;4982613;28;20043;-84
2023/01/27 12:54:31;;;;;;;3.10;2.22;;;;;;;;;;4978296;28;20423;-83
2023/01/27 12:57:01;;;;;;;4.80;1.80;;;;;;;;;;5011908;28;20121;-84
2023/01/27 12:59:27;;;;;;;2.65;1.90;;;;;;;;;;4994718;28;20494;-83
2023/01/27 13:01:58;;;;;;;4.85;2.55;;;;;;;;;;4982800;28;20069;-83
2023/01/27 13:04:28;;;;;;;3.92;1.90;;;;;;;;;;4978320;28;20054;-83
2023/01/27 13:06:55;;;;;;;3.00;2.00;;;;;;;;;;4985258;28;20102;-83
2023/01/27 13:09:48;;;;;;;3.22;1.90;;;;;;;;;;5016302;28;20105;-82
2023/01/27 13:12:28;;;;;;;1.90;1.80;;;;;;;;;;4978406;28;20050;-83
2023/01/27 13:14:56;;;;;;;2.05;1.85;;;;;;;;;;4984871;28;20126;-84
2023/01/27 13:17:27;;;;;;;3.70;2.03;;;;;;;;;;5009109;28;20048;-84
2023/01/27 13:19:55;;;;;;;6.55;2.35;;;;;;;;;;4977833;28;20394;-84
2023/01/27 13:22:23;;;;;;;3.92;2.00;;;;;;;;;;4978077;28;20445;-84
2023/01/27 13:24:51;;;;;;;2.05;1.73;;;;;;;;;;4977765;28;20047;-83
2023/01/27 13:27:20;;;;;;;2.95;1.70;;;;;;;;;;4975077;28;20557;-83
2023/01/27 13:29:59;;;;;;;4.03;1.92;;;;;;;;;;4977849;28;20063;-82
2023/01/27 13:32:27;;;;;;;3.40;1.92;;;;;;;;;;5010280;28;20053;-84
2023/01/27 13:35:20;;;;;;;2.75;2.03;;;;;;;;;;4980303;28;20042;-84
2023/01/27 13:37:51;;;;;;;4.70;1.98;;;;;;;;;;4984527;28;20051;-83
2023/01/27 13:40:17;;;;;;;4.72;1.90;;;;;;;;;;4999321;28;20112;-83
2023/01/27 13:42:48;;;;;;;2.60;2.05;;;;;;;;;;4989208;28;20426;-83
2023/01/27 13:45:23;;;;;;;2.42;2.10;;;;;;;;;;4992267;28;20042;-83
2023/01/27 13:48:09;;;;;;;2.10;1.90;;;;;;;;;;4994053;28;20126;-82
2023/01/27 13:50:38;;;;;;;3.10;1.90;;;;;;;;;;4991588;28;20055;-84
2023/01/27 13:53:05;;;;;;;2.10;1.90;;;;;;;;;;4991276;28;20050;-83
2023/01/27 13:55:39;;;;;;;1.80;1.70;;;;;;;;;;4990377;28;20133;-83
2023/01/27 13:58:11;;;;;;;1.60;1.50;;;;;;;;;;4979315;28;20045;-83
2023/01/27 14:00:40;;;;;;;1.40;1.40;;;;;;;;;;4985826;28;20038;-83
2023/01/27 14:03:05;;;;;;;1.50;1.40;;;;;;;;;;4993326;28;20053;-83
2023/01/27 14:05:52;;;;;;;2.67;1.40;;;;;;;;;;5019276;28;20047;-83
2023/01/27 14:08:18;;;;;;;2.17;1.73;;;;;;;;;;4985844;28;20042;-83
2023/01/27 14:10:47;;;;;;;2.40;2.10;;;;;;;;;;4980139;28;20049;-84
2023/01/27 14:13:42;;;;;;;1.60;1.45;;;;;;;;;;5004504;28;20051;-84
2023/01/27 14:16:27;;;;;;;3.08;1.70;;;;;;;;;;4974428;28;20046;-83
2023/01/27 14:19:13;;;;;;;2.35;1.70;;;;;;;;;;5011672;28;20588;-83
2023/01/27 14:21:43;;;;;;;3.63;1.92;;;;;;;;;;4978558;28;20045;-84
2023/01/27 14:24:19;;;;;;;2.75;1.50;;;;;;;;;;4975019;28;20049;-83
2023/01/27 14:26:48;;;;;;;2.13;1.95;;;;;;;;;;4981240;28;20046;-82
2023/01/27 14:29:21;;;;;;;3.28;1.67;;;;;;;;;;4979327;28;20390;-84
2023/01/27 14:31:47;;;;;;;1.87;1.60;;;;;;;;;;5009860;28;20058;-83
2023/01/27 14:34:29;;;;;;;2.75;1.60;;;;;;;;;;5007942;28;20306;-84
2023/01/27 14:37:01;;;;;;;1.70;1.50;;;;;;;;;;4979689;28;20046;-83
2023/01/27 14:39:32;;;;;;;1.85;1.42;;;;;;;;;;4978145;28;20050;-84
2023/01/27 14:42:03;;;;;;;2.92;1.65;;;;;;;;;;4976359;28;20475;-84
2023/01/27 14:44:39;;;;;;;1.42;1.40;;;;;;;;;;4980054;28;20042;-83
2023/01/27 14:47:27;;;;;;;1.80;1.70;;;;;;;;;;4977704;28;20394;-84
2023/01/27 14:49:53;;;;;;;1.48;1.40;;;;;;;;;;5012853;28;20517;-84
2023/01/27 14:52:36;;;;;;;2.80;1.75;;;;;;;;;;4980465;28;20039;-84
2023/01/27 14:55:14;;;;;;;3.00;1.70;;;;;;;;;;5008445;28;20162;-83
2023/01/27 14:57:46;;;;;;;1.65;1.55;;;;;;;;;;4974220;28;20043;-84
2023/01/27 15:00:32;;;;;;;4.47;1.70;;;;;;;;;;4978691;28;20051;-84
2023/01/27 15:03:08;;;;;;;2.45;1.92;;;;;;;;;;5011293;28;20098;-84
2023/01/27 15:05:40;;;;;;;1.70;1.60;;;;;;;;;;5010507;28;20047;-83
2023/01/27 15:08:06;;;;;;;1.90;1.80;;;;;;;;;;5021204;28;20037;-84
2023/01/27 15:10:32;;;;;;;2.00;1.90;;;;;;;;;;5009035;28;20039;-83
2023/01/27 15:13:21;;;;;;;2.45;1.90;;;;;;;;;;4973442;28;20393;-84
2023/01/27 15:15:53;;;;;;;1.98;1.88;;;;;;;;;;5006088;28;20046;-84
2023/01/27 15:18:22;;;;;;;2.10;1.60;;;;;;;;;;4984985;28;20030;-84
2023/01/27 15:20:59;;;;;;;1.80;1.70;;;;;;;;;;4975303;28;20105;-83
2023/01/27 15:23:25;;;;;;;4.30;1.70;;;;;;;;;;4982747;28;20050;-84
2023/01/27 15:25:56;;;;;;;1.92;1.83;;;;;;;;;;4985092;28;20093;-84
2023/01/27 15:28:25;;;;;;;3.65;1.70;;;;;;;;;;4978544;28;20133;-84
2023/01/27 15:31:10;;;;;;;1.90;1.60;;;;;;;;;;4977006;28;20050;-82